sensor_id;sensor_type;location;lat;lon;timestamp;P1;durP1;ratioP1;P2;durP2;ratioP2
24547;SDS011;12713;51.624;4.924;2023-05-09T00:01:39;29.08;;;18.67;;
24547;SDS011;12713;51.624;4.924;2023-05-09T00:04:07;22.15;;;16.83;;
24547;SDS011;12713;51.624;4.924;2023-05-09T00:06:33;27.25;;;19.88;;
24547;SDS011;12713;51.624;4.924;2023-05-09T00:08:59;26.65;;;19.67;;
24547;SDS011;12713;51.624;4.924;2023-05-09T00:11:25;27.70;;;19.92;;
24547;SDS011;12713;51.624;4.924;2023-05-09T00:13:51;22.40;;;16.10;;
24547;SDS011;12713;51.624;4.924;2023-05-09T00:16:17;28.77;;;19.00;;
24547;SDS011;12713;51.624;4.924;2023-05-09T00:18:44;27.40;;;19.52;;
24547;SDS011;12713;51.624;4.924;2023-05-09T00:21:11;26.50;;;19.25;;
24547;SDS011;12713;51.624;4.924;2023-05-09T00:23:37;26.73;;;18.25;;
24547;SDS011;12713;51.624;4.924;2023-05-09T00:26:03;26.67;;;19.75;;
24547;SDS011;12713;51.624;4.924;2023-05-09T00:28:29;27.65;;;18.70;;
24547;SDS011;12713;51.624;4.924;2023-05-09T00:30:56;26.80;;;19.42;;
24547;SDS011;12713;51.624;4.924;2023-05-09T00:33:22;24.83;;;18.08;;
24547;SDS011;12713;51.624;4.924;2023-05-09T00:35:51;22.35;;;16.70;;
24547;SDS011;12713;51.624;4.924;2023-05-09T00:38:17;23.85;;;17.77;;
24547;SDS011;12713;51.624;4.924;2023-05-09T00:40:43;26.15;;;16.85;;
24547;SDS011;12713;51.624;4.924;2023-05-09T00:43:09;24.98;;;17.67;;
24547;SDS011;12713;51.624;4.924;2023-05-09T00:45:35;28.65;;;18.50;;
24547;SDS011;12713;51.624;4.924;2023-05-09T00:48:01;27.67;;;18.20;;
24547;SDS011;12713;51.624;4.924;2023-05-09T00:50:27;26.20;;;17.35;;
24547;SDS011;12713;51.624;4.924;2023-05-09T00:52:53;21.30;;;14.93;;
24547;SDS011;12713;51.624;4.924;2023-05-09T00:55:23;27.02;;;16.90;;
24547;SDS011;12713;51.624;4.924;2023-05-09T00:57:49;25.42;;;17.42;;
24547;SDS011;12713;51.624;4.924;2023-05-09T01:00:15;22.58;;;15.82;;
24547;SDS011;12713;51.624;4.924;2023-05-09T01:02:43;27.35;;;17.13;;
24547;SDS011;12713;51.624;4.924;2023-05-09T01:05:09;28.30;;;16.27;;
24547;SDS011;12713;51.624;4.924;2023-05-09T01:07:51;23.02;;;17.15;;
24547;SDS011;12713;51.624;4.924;2023-05-09T01:21:38;23.63;;;14.82;;
24547;SDS011;12713;51.624;4.924;2023-05-09T01:31:09;25.88;;;16.67;;
24547;SDS011;12713;51.624;4.924;2023-05-09T01:33:37;22.75;;;15.38;;
24547;SDS011;12713;51.624;4.924;2023-05-09T01:36:04;26.88;;;16.92;;
24547;SDS011;12713;51.624;4.924;2023-05-09T01:38:31;21.30;;;15.32;;
24547;SDS011;12713;51.624;4.924;2023-05-09T01:40:57;26.00;;;17.23;;
24547;SDS011;12713;51.624;4.924;2023-05-09T01:43:24;23.63;;;16.75;;
24547;SDS011;12713;51.624;4.924;2023-05-09T01:45:52;24.60;;;15.15;;
24547;SDS011;12713;51.624;4.924;2023-05-09T01:48:18;29.42;;;17.38;;
24547;SDS011;12713;51.624;4.924;2023-05-09T01:50:45;24.80;;;16.73;;
24547;SDS011;12713;51.624;4.924;2023-05-09T01:53:12;27.75;;;16.73;;
24547;SDS011;12713;51.624;4.924;2023-05-09T01:55:38;25.92;;;16.30;;
24547;SDS011;12713;51.624;4.924;2023-05-09T01:58:05;27.52;;;17.23;;
24547;SDS011;12713;51.624;4.924;2023-05-09T02:00:32;23.33;;;15.35;;
24547;SDS011;12713;51.624;4.924;2023-05-09T02:02:58;24.73;;;16.17;;
24547;SDS011;12713;51.624;4.924;2023-05-09T02:05:26;26.75;;;17.15;;
24547;SDS011;12713;51.624;4.924;2023-05-09T02:07:53;20.15;;;15.85;;
24547;SDS011;12713;51.624;4.924;2023-05-09T02:10:22;24.75;;;15.80;;
24547;SDS011;12713;51.624;4.924;2023-05-09T02:12:51;26.58;;;18.42;;
24547;SDS011;12713;51.624;4.924;2023-05-09T02:15:18;26.30;;;18.23;;
24547;SDS011;12713;51.624;4.924;2023-05-09T02:17:44;27.90;;;19.13;;
24547;SDS011;12713;51.624;4.924;2023-05-09T02:20:10;27.38;;;18.95;;
24547;SDS011;12713;51.624;4.924;2023-05-09T02:22:38;26.35;;;18.92;;
24547;SDS011;12713;51.624;4.924;2023-05-09T02:25:06;30.58;;;18.85;;
24547;SDS011;12713;51.624;4.924;2023-05-09T02:27:32;24.05;;;17.00;;
24547;SDS011;12713;51.624;4.924;2023-05-09T02:30:00;29.83;;;17.85;;
24547;SDS011;12713;51.624;4.924;2023-05-09T02:32:29;27.58;;;16.88;;
24547;SDS011;12713;51.624;4.924;2023-05-09T02:34:56;27.35;;;19.38;;
24547;SDS011;12713;51.624;4.924;2023-05-09T02:37:22;25.25;;;17.60;;
24547;SDS011;12713;51.624;4.924;2023-05-09T02:39:48;26.13;;;18.48;;
24547;SDS011;12713;51.624;4.924;2023-05-09T02:42:18;24.80;;;18.02;;
24547;SDS011;12713;51.624;4.924;2023-05-09T02:44:45;28.35;;;18.48;;
24547;SDS011;12713;51.624;4.924;2023-05-09T02:47:11;21.73;;;15.35;;
24547;SDS011;12713;51.624;4.924;2023-05-09T02:49:37;23.58;;;16.83;;
24547;SDS011;12713;51.624;4.924;2023-05-09T02:52:03;30.13;;;18.85;;
24547;SDS011;12713;51.624;4.924;2023-05-09T02:54:30;27.10;;;17.75;;
24547;SDS011;12713;51.624;4.924;2023-05-09T02:56:56;24.52;;;18.25;;
24547;SDS011;12713;51.624;4.924;2023-05-09T02:59:23;28.40;;;18.15;;
24547;SDS011;12713;51.624;4.924;2023-05-09T03:01:49;27.23;;;17.45;;
24547;SDS011;12713;51.624;4.924;2023-05-09T03:04:15;24.55;;;18.30;;
24547;SDS011;12713;51.624;4.924;2023-05-09T03:06:41;29.70;;;17.83;;
24547;SDS011;12713;51.624;4.924;2023-05-09T03:09:08;26.08;;;17.42;;
24547;SDS011;12713;51.624;4.924;2023-05-09T03:11:34;26.98;;;17.73;;
24547;SDS011;12713;51.624;4.924;2023-05-09T03:14:01;27.00;;;18.77;;
24547;SDS011;12713;51.624;4.924;2023-05-09T03:16:27;27.70;;;17.73;;
24547;SDS011;12713;51.624;4.924;2023-05-09T03:18:53;26.45;;;17.83;;
24547;SDS011;12713;51.624;4.924;2023-05-09T03:21:19;23.60;;;15.43;;
24547;SDS011;12713;51.624;4.924;2023-05-09T03:23:45;29.17;;;17.95;;
24547;SDS011;12713;51.624;4.924;2023-05-09T03:26:11;26.38;;;17.98;;
24547;SDS011;12713;51.624;4.924;2023-05-09T03:28:37;23.95;;;16.33;;
24547;SDS011;12713;51.624;4.924;2023-05-09T03:31:03;29.48;;;18.73;;
24547;SDS011;12713;51.624;4.924;2023-05-09T03:33:30;23.65;;;15.13;;
24547;SDS011;12713;51.624;4.924;2023-05-09T03:35:56;30.58;;;18.15;;
24547;SDS011;12713;51.624;4.924;2023-05-09T03:38:22;27.67;;;16.55;;
24547;SDS011;12713;51.624;4.924;2023-05-09T03:40:57;26.88;;;18.00;;
24547;SDS011;12713;51.624;4.924;2023-05-09T03:43:23;22.40;;;15.57;;
24547;SDS011;12713;51.624;4.924;2023-05-09T03:45:49;25.73;;;17.25;;
24547;SDS011;12713;51.624;4.924;2023-05-09T03:48:15;31.15;;;17.95;;
24547;SDS011;12713;51.624;4.924;2023-05-09T03:50:41;26.02;;;17.00;;
24547;SDS011;12713;51.624;4.924;2023-05-09T03:53:07;25.55;;;16.75;;
24547;SDS011;12713;51.624;4.924;2023-05-09T03:55:33;27.25;;;18.30;;
24547;SDS011;12713;51.624;4.924;2023-05-09T03:58:00;25.83;;;17.00;;
24547;SDS011;12713;51.624;4.924;2023-05-09T04:00:25;27.00;;;17.70;;
24547;SDS011;12713;51.624;4.924;2023-05-09T04:02:52;30.33;;;18.08;;
24547;SDS011;12713;51.624;4.924;2023-05-09T04:05:18;23.08;;;17.50;;
24547;SDS011;12713;51.624;4.924;2023-05-09T04:07:44;27.35;;;18.20;;
24547;SDS011;12713;51.624;4.924;2023-05-09T04:10:10;26.15;;;18.60;;
24547;SDS011;12713;51.624;4.924;2023-05-09T04:12:36;28.10;;;19.75;;
24547;SDS011;12713;51.624;4.924;2023-05-09T04:15:02;28.95;;;18.35;;
24547;SDS011;12713;51.624;4.924;2023-05-09T04:17:28;24.52;;;17.08;;
24547;SDS011;12713;51.624;4.924;2023-05-09T04:19:55;29.67;;;19.75;;
24547;SDS011;12713;51.624;4.924;2023-05-09T04:22:21;28.83;;;19.08;;
24547;SDS011;12713;51.624;4.924;2023-05-09T04:24:47;28.13;;;18.35;;
24547;SDS011;12713;51.624;4.924;2023-05-09T04:27:13;25.38;;;17.15;;
24547;SDS011;12713;51.624;4.924;2023-05-09T04:29:39;33.08;;;18.30;;
24547;SDS011;12713;51.624;4.924;2023-05-09T04:32:05;35.97;;;21.40;;
24547;SDS011;12713;51.624;4.924;2023-05-09T04:34:31;29.15;;;20.02;;
24547;SDS011;12713;51.624;4.924;2023-05-09T04:36:57;31.70;;;20.77;;
24547;SDS011;12713;51.624;4.924;2023-05-09T04:39:23;29.38;;;20.10;;
24547;SDS011;12713;51.624;4.924;2023-05-09T04:41:49;37.15;;;22.17;;
24547;SDS011;12713;51.624;4.924;2023-05-09T04:44:16;28.77;;;20.08;;
24547;SDS011;12713;51.624;4.924;2023-05-09T04:46:42;32.80;;;22.20;;
24547;SDS011;12713;51.624;4.924;2023-05-09T04:49:08;30.50;;;20.20;;
24547;SDS011;12713;51.624;4.924;2023-05-09T04:51:34;33.75;;;22.65;;
24547;SDS011;12713;51.624;4.924;2023-05-09T04:54:00;31.00;;;21.38;;
24547;SDS011;12713;51.624;4.924;2023-05-09T04:56:26;30.42;;;21.58;;
24547;SDS011;12713;51.624;4.924;2023-05-09T04:58:52;25.27;;;19.00;;
24547;SDS011;12713;51.624;4.924;2023-05-09T05:01:18;32.35;;;21.55;;
24547;SDS011;12713;51.624;4.924;2023-05-09T05:03:44;31.08;;;21.00;;
24547;SDS011;12713;51.624;4.924;2023-05-09T05:06:10;28.75;;;19.35;;
24547;SDS011;12713;51.624;4.924;2023-05-09T05:08:36;35.53;;;20.15;;
24547;SDS011;12713;51.624;4.924;2023-05-09T05:11:02;27.77;;;19.83;;
24547;SDS011;12713;51.624;4.924;2023-05-09T05:13:28;28.75;;;20.33;;
24547;SDS011;12713;51.624;4.924;2023-05-09T05:15:54;32.90;;;20.98;;
24547;SDS011;12713;51.624;4.924;2023-05-09T05:18:22;29.75;;;20.63;;
24547;SDS011;12713;51.624;4.924;2023-05-09T05:20:48;28.80;;;18.70;;
24547;SDS011;12713;51.624;4.924;2023-05-09T05:23:14;23.25;;;18.23;;
24547;SDS011;12713;51.624;4.924;2023-05-09T05:25:40;24.10;;;17.77;;
24547;SDS011;12713;51.624;4.924;2023-05-09T05:28:06;25.05;;;17.60;;
24547;SDS011;12713;51.624;4.924;2023-05-09T05:30:32;25.05;;;16.80;;
24547;SDS011;12713;51.624;4.924;2023-05-09T05:32:58;24.27;;;16.73;;
24547;SDS011;12713;51.624;4.924;2023-05-09T05:35:24;23.50;;;15.80;;
24547;SDS011;12713;51.624;4.924;2023-05-09T05:37:52;26.27;;;15.82;;
24547;SDS011;12713;51.624;4.924;2023-05-09T05:40:18;22.17;;;15.80;;
24547;SDS011;12713;51.624;4.924;2023-05-09T05:42:44;23.27;;;14.73;;
24547;SDS011;12713;51.624;4.924;2023-05-09T05:45:11;19.58;;;14.77;;
24547;SDS011;12713;51.624;4.924;2023-05-09T05:47:37;23.60;;;14.63;;
24547;SDS011;12713;51.624;4.924;2023-05-09T05:50:03;24.65;;;15.38;;
24547;SDS011;12713;51.624;4.924;2023-05-09T05:52:36;22.02;;;14.65;;
24547;SDS011;12713;51.624;4.924;2023-05-09T05:55:02;20.15;;;16.08;;
24547;SDS011;12713;51.624;4.924;2023-05-09T05:57:28;23.23;;;15.77;;
24547;SDS011;12713;51.624;4.924;2023-05-09T05:59:54;20.90;;;15.25;;
24547;SDS011;12713;51.624;4.924;2023-05-09T06:02:21;22.58;;;15.80;;
24547;SDS011;12713;51.624;4.924;2023-05-09T06:04:47;24.02;;;15.07;;
24547;SDS011;12713;51.624;4.924;2023-05-09T06:07:13;20.58;;;15.73;;
24547;SDS011;12713;51.624;4.924;2023-05-09T06:09:39;22.33;;;15.55;;
24547;SDS011;12713;51.624;4.924;2023-05-09T06:12:05;28.52;;;18.90;;
24547;SDS011;12713;51.624;4.924;2023-05-09T06:14:31;23.00;;;17.02;;
24547;SDS011;12713;51.624;4.924;2023-05-09T06:16:57;24.48;;;16.58;;
24547;SDS011;12713;51.624;4.924;2023-05-09T06:19:24;23.98;;;17.95;;
24547;SDS011;12713;51.624;4.924;2023-05-09T06:21:50;23.85;;;15.95;;
24547;SDS011;12713;51.624;4.924;2023-05-09T06:24:16;24.52;;;16.85;;
24547;SDS011;12713;51.624;4.924;2023-05-09T06:26:42;24.33;;;16.98;;
24547;SDS011;12713;51.624;4.924;2023-05-09T06:29:08;23.33;;;16.35;;
24547;SDS011;12713;51.624;4.924;2023-05-09T06:31:34;23.33;;;17.42;;
24547;SDS011;12713;51.624;4.924;2023-05-09T06:34:03;24.73;;;17.55;;
24547;SDS011;12713;51.624;4.924;2023-05-09T06:36:29;22.10;;;16.00;;
24547;SDS011;12713;51.624;4.924;2023-05-09T06:38:56;24.23;;;18.10;;
24547;SDS011;12713;51.624;4.924;2023-05-09T06:41:22;25.52;;;17.80;;
24547;SDS011;12713;51.624;4.924;2023-05-09T06:43:48;25.65;;;18.13;;
24547;SDS011;12713;51.624;4.924;2023-05-09T06:46:14;23.40;;;17.65;;
24547;SDS011;12713;51.624;4.924;2023-05-09T06:48:40;25.35;;;17.00;;
24547;SDS011;12713;51.624;4.924;2023-05-09T06:51:06;27.00;;;18.55;;
24547;SDS011;12713;51.624;4.924;2023-05-09T06:53:32;26.55;;;17.02;;
24547;SDS011;12713;51.624;4.924;2023-05-09T06:55:58;25.38;;;18.60;;
24547;SDS011;12713;51.624;4.924;2023-05-09T06:58:25;27.38;;;18.55;;
24547;SDS011;12713;51.624;4.924;2023-05-09T07:00:51;20.35;;;16.45;;
24547;SDS011;12713;51.624;4.924;2023-05-09T07:03:17;28.85;;;18.77;;
24547;SDS011;12713;51.624;4.924;2023-05-09T07:05:43;26.77;;;19.05;;
24547;SDS011;12713;51.624;4.924;2023-05-09T07:08:09;23.80;;;18.17;;
24547;SDS011;12713;51.624;4.924;2023-05-09T07:10:35;24.00;;;17.10;;
24547;SDS011;12713;51.624;4.924;2023-05-09T07:13:02;24.23;;;17.92;;
24547;SDS011;12713;51.624;4.924;2023-05-09T07:15:28;24.65;;;17.85;;
24547;SDS011;12713;51.624;4.924;2023-05-09T07:17:54;22.88;;;17.30;;
24547;SDS011;12713;51.624;4.924;2023-05-09T07:20:20;29.45;;;18.52;;
24547;SDS011;12713;51.624;4.924;2023-05-09T07:22:46;23.45;;;17.73;;
24547;SDS011;12713;51.624;4.924;2023-05-09T07:25:12;21.75;;;17.55;;
24547;SDS011;12713;51.624;4.924;2023-05-09T07:27:38;22.10;;;17.25;;
24547;SDS011;12713;51.624;4.924;2023-05-09T07:30:05;25.92;;;17.30;;
24547;SDS011;12713;51.624;4.924;2023-05-09T07:32:33;23.65;;;18.52;;
24547;SDS011;12713;51.624;4.924;2023-05-09T07:34:59;24.05;;;18.13;;
24547;SDS011;12713;51.624;4.924;2023-05-09T07:37:25;26.23;;;18.48;;
24547;SDS011;12713;51.624;4.924;2023-05-09T07:39:51;28.23;;;19.40;;
24547;SDS011;12713;51.624;4.924;2023-05-09T07:42:17;24.20;;;18.30;;
24547;SDS011;12713;51.624;4.924;2023-05-09T07:44:43;23.27;;;17.23;;
24547;SDS011;12713;51.624;4.924;2023-05-09T07:47:09;23.90;;;17.88;;
24547;SDS011;12713;51.624;4.924;2023-05-09T07:49:35;24.98;;;18.05;;
24547;SDS011;12713;51.624;4.924;2023-05-09T07:52:01;23.40;;;16.70;;
24547;SDS011;12713;51.624;4.924;2023-05-09T07:54:27;22.10;;;16.25;;
24547;SDS011;12713;51.624;4.924;2023-05-09T07:56:53;22.67;;;15.80;;
24547;SDS011;12713;51.624;4.924;2023-05-09T07:59:19;22.27;;;15.55;;
24547;SDS011;12713;51.624;4.924;2023-05-09T08:01:45;22.23;;;14.73;;
24547;SDS011;12713;51.624;4.924;2023-05-09T08:04:12;21.65;;;15.85;;
24547;SDS011;12713;51.624;4.924;2023-05-09T08:06:38;24.15;;;15.55;;
24547;SDS011;12713;51.624;4.924;2023-05-09T08:09:04;19.35;;;14.75;;
24547;SDS011;12713;51.624;4.924;2023-05-09T08:11:33;19.55;;;14.57;;
24547;SDS011;12713;51.624;4.924;2023-05-09T08:14:00;22.33;;;15.07;;
24547;SDS011;12713;51.624;4.924;2023-05-09T08:16:26;21.67;;;15.13;;
24547;SDS011;12713;51.624;4.924;2023-05-09T08:18:52;18.85;;;14.95;;
24547;SDS011;12713;51.624;4.924;2023-05-09T08:21:19;20.52;;;15.35;;
24547;SDS011;12713;51.624;4.924;2023-05-09T08:23:45;20.77;;;15.73;;
24547;SDS011;12713;51.624;4.924;2023-05-09T08:26:11;20.27;;;14.65;;
24547;SDS011;12713;51.624;4.924;2023-05-09T08:28:37;20.63;;;14.52;;
24547;SDS011;12713;51.624;4.924;2023-05-09T08:31:03;21.85;;;15.93;;
24547;SDS011;12713;51.624;4.924;2023-05-09T08:33:29;15.48;;;11.45;;
24547;SDS011;12713;51.624;4.924;2023-05-09T08:35:55;18.75;;;13.00;;
24547;SDS011;12713;51.624;4.924;2023-05-09T08:38:21;17.33;;;12.98;;
24547;SDS011;12713;51.624;4.924;2023-05-09T08:40:48;20.20;;;12.70;;
24547;SDS011;12713;51.624;4.924;2023-05-09T08:43:15;18.00;;;13.15;;
24547;SDS011;12713;51.624;4.924;2023-05-09T08:45:45;19.13;;;12.68;;
24547;SDS011;12713;51.624;4.924;2023-05-09T08:48:15;15.52;;;12.40;;
24547;SDS011;12713;51.624;4.924;2023-05-09T08:50:42;17.08;;;12.85;;
24547;SDS011;12713;51.624;4.924;2023-05-09T08:53:08;18.05;;;13.57;;
24547;SDS011;12713;51.624;4.924;2023-05-09T08:55:34;17.10;;;13.02;;
24547;SDS011;12713;51.624;4.924;2023-05-09T08:58:01;15.88;;;12.82;;
24547;SDS011;12713;51.624;4.924;2023-05-09T09:00:28;19.35;;;12.93;;
24547;SDS011;12713;51.624;4.924;2023-05-09T09:02:55;19.00;;;14.10;;
24547;SDS011;12713;51.624;4.924;2023-05-09T09:05:21;21.08;;;14.23;;
24547;SDS011;12713;51.624;4.924;2023-05-09T09:07:48;17.85;;;12.93;;
24547;SDS011;12713;51.624;4.924;2023-05-09T09:10:14;18.80;;;14.20;;
24547;SDS011;12713;51.624;4.924;2023-05-09T09:12:41;15.90;;;13.45;;
24547;SDS011;12713;51.624;4.924;2023-05-09T09:15:09;15.38;;;13.10;;
24547;SDS011;12713;51.624;4.924;2023-05-09T09:17:36;15.85;;;12.45;;
24547;SDS011;12713;51.624;4.924;2023-05-09T09:20:05;20.02;;;13.93;;
24547;SDS011;12713;51.624;4.924;2023-05-09T09:22:33;18.45;;;13.05;;
24547;SDS011;12713;51.624;4.924;2023-05-09T09:24:59;17.27;;;13.38;;
24547;SDS011;12713;51.624;4.924;2023-05-09T09:27:26;16.75;;;13.65;;
24547;SDS011;12713;51.624;4.924;2023-05-09T09:29:52;17.25;;;12.98;;
24547;SDS011;12713;51.624;4.924;2023-05-09T09:32:18;16.35;;;12.85;;
24547;SDS011;12713;51.624;4.924;2023-05-09T09:34:57;23.10;;;14.32;;
24547;SDS011;12713;51.624;4.924;2023-05-09T09:37:30;16.90;;;13.70;;
24547;SDS011;12713;51.624;4.924;2023-05-09T09:39:58;17.98;;;14.35;;
24547;SDS011;12713;51.624;4.924;2023-05-09T09:42:24;19.58;;;14.65;;
24547;SDS011;12713;51.624;4.924;2023-05-09T09:44:55;22.92;;;13.32;;
24547;SDS011;12713;51.624;4.924;2023-05-09T09:47:29;16.98;;;13.32;;
24547;SDS011;12713;51.624;4.924;2023-05-09T09:49:55;20.73;;;14.30;;
24547;SDS011;12713;51.624;4.924;2023-05-09T09:52:22;15.77;;;13.43;;
24547;SDS011;12713;51.624;4.924;2023-05-09T09:54:53;18.88;;;13.40;;
24547;SDS011;12713;51.624;4.924;2023-05-09T09:57:36;19.00;;;12.98;;
24547;SDS011;12713;51.624;4.924;2023-05-09T10:00:04;20.15;;;12.80;;
24547;SDS011;12713;51.624;4.924;2023-05-09T10:02:30;17.63;;;13.18;;
24547;SDS011;12713;51.624;4.924;2023-05-09T10:05:04;16.90;;;12.55;;
24547;SDS011;12713;51.624;4.924;2023-05-09T10:07:34;19.02;;;13.13;;
24547;SDS011;12713;51.624;4.924;2023-05-09T10:10:01;18.25;;;12.75;;
24547;SDS011;12713;51.624;4.924;2023-05-09T10:12:33;18.02;;;14.10;;
24547;SDS011;12713;51.624;4.924;2023-05-09T10:15:05;18.30;;;12.95;;
24547;SDS011;12713;51.624;4.924;2023-05-09T10:17:31;15.20;;;12.27;;
24547;SDS011;12713;51.624;4.924;2023-05-09T10:19:58;15.63;;;12.93;;
24547;SDS011;12713;51.624;4.924;2023-05-09T10:22:26;16.40;;;12.55;;
24547;SDS011;12713;51.624;4.924;2023-05-09T10:25:28;17.42;;;13.00;;
24547;SDS011;12713;51.624;4.924;2023-05-09T10:27:46;17.08;;;12.43;;
24547;SDS011;12713;51.624;4.924;2023-05-09T10:30:16;14.43;;;12.15;;
24547;SDS011;12713;51.624;4.924;2023-05-09T10:32:54;17.20;;;12.05;;
24547;SDS011;12713;51.624;4.924;2023-05-09T10:35:26;16.73;;;12.13;;
24547;SDS011;12713;51.624;4.924;2023-05-09T10:37:55;17.77;;;12.70;;
24547;SDS011;12713;51.624;4.924;2023-05-09T10:40:21;14.98;;;12.32;;
24547;SDS011;12713;51.624;4.924;2023-05-09T10:42:47;16.80;;;12.57;;
24547;SDS011;12713;51.624;4.924;2023-05-09T10:45:14;15.15;;;11.80;;
24547;SDS011;12713;51.624;4.924;2023-05-09T10:47:40;17.00;;;12.85;;
24547;SDS011;12713;51.624;4.924;2023-05-09T10:50:07;16.40;;;13.07;;
24547;SDS011;12713;51.624;4.924;2023-05-09T10:52:33;17.60;;;14.75;;
24547;SDS011;12713;51.624;4.924;2023-05-09T10:55:00;16.75;;;12.50;;
24547;SDS011;12713;51.624;4.924;2023-05-09T10:57:28;16.35;;;12.63;;
24547;SDS011;12713;51.624;4.924;2023-05-09T10:59:54;17.73;;;12.82;;
24547;SDS011;12713;51.624;4.924;2023-05-09T11:02:21;18.90;;;12.75;;
24547;SDS011;12713;51.624;4.924;2023-05-09T11:05:15;23.90;;;14.17;;
24547;SDS011;12713;51.624;4.924;2023-05-09T11:07:44;16.88;;;12.40;;
24547;SDS011;12713;51.624;4.924;2023-05-09T11:10:16;15.85;;;12.52;;
24547;SDS011;12713;51.624;4.924;2023-05-09T11:12:58;13.75;;;12.27;;
24547;SDS011;12713;51.624;4.924;2023-05-09T11:15:25;19.80;;;11.55;;
24547;SDS011;12713;51.624;4.924;2023-05-09T11:18:04;17.60;;;11.23;;
24547;SDS011;12713;51.624;4.924;2023-05-09T11:20:32;16.17;;;11.98;;
24547;SDS011;12713;51.624;4.924;2023-05-09T11:22:59;17.33;;;13.77;;
24547;SDS011;12713;51.624;4.924;2023-05-09T11:25:26;21.40;;;14.75;;
24547;SDS011;12713;51.624;4.924;2023-05-09T11:27:57;17.33;;;14.35;;
24547;SDS011;12713;51.624;4.924;2023-05-09T11:30:23;14.63;;;12.68;;
24547;SDS011;12713;51.624;4.924;2023-05-09T11:32:59;15.63;;;13.52;;
24547;SDS011;12713;51.624;4.924;2023-05-09T11:35:26;14.30;;;11.70;;
24547;SDS011;12713;51.624;4.924;2023-05-09T11:37:59;17.58;;;11.88;;
24547;SDS011;12713;51.624;4.924;2023-05-09T11:40:25;13.38;;;11.85;;
24547;SDS011;12713;51.624;4.924;2023-05-09T11:42:52;14.55;;;10.80;;
24547;SDS011;12713;51.624;4.924;2023-05-09T11:45:19;14.55;;;11.80;;
24547;SDS011;12713;51.624;4.924;2023-05-09T11:47:46;12.73;;;10.65;;
24547;SDS011;12713;51.624;4.924;2023-05-09T11:50:12;13.23;;;10.63;;
24547;SDS011;12713;51.624;4.924;2023-05-09T11:52:39;13.02;;;10.60;;
24547;SDS011;12713;51.624;4.924;2023-05-09T11:55:09;11.07;;;9.48;;
24547;SDS011;12713;51.624;4.924;2023-05-09T11:57:38;13.80;;;10.70;;
24547;SDS011;12713;51.624;4.924;2023-05-09T12:00:04;15.60;;;11.30;;
24547;SDS011;12713;51.624;4.924;2023-05-09T12:02:31;12.93;;;9.90;;
24547;SDS011;12713;51.624;4.924;2023-05-09T12:05:12;14.20;;;10.35;;
24547;SDS011;12713;51.624;4.924;2023-05-09T12:07:38;14.80;;;10.68;;
24547;SDS011;12713;51.624;4.924;2023-05-09T12:10:05;14.98;;;10.07;;
24547;SDS011;12713;51.624;4.924;2023-05-09T12:12:33;13.25;;;10.50;;
24547;SDS011;12713;51.624;4.924;2023-05-09T12:15:03;15.07;;;9.98;;
24547;SDS011;12713;51.624;4.924;2023-05-09T12:17:29;11.80;;;10.25;;
24547;SDS011;12713;51.624;4.924;2023-05-09T12:19:57;10.38;;;8.73;;
24547;SDS011;12713;51.624;4.924;2023-05-09T12:22:23;11.68;;;10.25;;
24547;SDS011;12713;51.624;4.924;2023-05-09T12:24:49;15.50;;;10.63;;
24547;SDS011;12713;51.624;4.924;2023-05-09T12:27:15;13.35;;;10.25;;
24547;SDS011;12713;51.624;4.924;2023-05-09T12:29:42;13.23;;;9.82;;
24547;SDS011;12713;51.624;4.924;2023-05-09T12:32:12;11.80;;;10.32;;
24547;SDS011;12713;51.624;4.924;2023-05-09T12:34:38;13.15;;;10.65;;
24547;SDS011;12713;51.624;4.924;2023-05-09T12:37:07;12.13;;;9.35;;
24547;SDS011;12713;51.624;4.924;2023-05-09T12:39:38;12.13;;;9.23;;
24547;SDS011;12713;51.624;4.924;2023-05-09T12:42:10;12.02;;;9.80;;
24547;SDS011;12713;51.624;4.924;2023-05-09T12:44:36;12.40;;;9.57;;
24547;SDS011;12713;51.624;4.924;2023-05-09T12:47:03;11.75;;;9.55;;
24547;SDS011;12713;51.624;4.924;2023-05-09T12:49:30;13.93;;;10.43;;
24547;SDS011;12713;51.624;4.924;2023-05-09T12:51:56;12.38;;;10.32;;
24547;SDS011;12713;51.624;4.924;2023-05-09T12:54:23;15.55;;;9.90;;
24547;SDS011;12713;51.624;4.924;2023-05-09T12:56:50;14.05;;;9.65;;
24547;SDS011;12713;51.624;4.924;2023-05-09T12:59:20;11.82;;;10.23;;
24547;SDS011;12713;51.624;4.924;2023-05-09T13:01:50;13.32;;;10.98;;
24547;SDS011;12713;51.624;4.924;2023-05-09T13:04:18;14.25;;;10.95;;
24547;SDS011;12713;51.624;4.924;2023-05-09T13:06:51;11.13;;;9.63;;
24547;SDS011;12713;51.624;4.924;2023-05-09T13:09:19;12.18;;;10.95;;
24547;SDS011;12713;51.624;4.924;2023-05-09T13:11:45;10.82;;;9.65;;
24547;SDS011;12713;51.624;4.924;2023-05-09T13:14:12;15.13;;;10.07;;
24547;SDS011;12713;51.624;4.924;2023-05-09T13:16:39;15.02;;;10.82;;
24547;SDS011;12713;51.624;4.924;2023-05-09T13:19:05;13.80;;;10.70;;
24547;SDS011;12713;51.624;4.924;2023-05-09T13:21:31;12.98;;;10.23;;
24547;SDS011;12713;51.624;4.924;2023-05-09T13:23:57;11.60;;;10.02;;
24547;SDS011;12713;51.624;4.924;2023-05-09T13:26:23;12.65;;;10.48;;
24547;SDS011;12713;51.624;4.924;2023-05-09T13:28:51;11.75;;;9.32;;
24547;SDS011;12713;51.624;4.924;2023-05-09T13:31:17;10.73;;;9.57;;
24547;SDS011;12713;51.624;4.924;2023-05-09T13:33:43;12.20;;;9.30;;
24547;SDS011;12713;51.624;4.924;2023-05-09T13:36:09;8.63;;;7.78;;
24547;SDS011;12713;51.624;4.924;2023-05-09T13:38:35;9.00;;;7.78;;
24547;SDS011;12713;51.624;4.924;2023-05-09T13:41:04;8.65;;;6.70;;
24547;SDS011;12713;51.624;4.924;2023-05-09T13:43:31;10.15;;;7.05;;
24547;SDS011;12713;51.624;4.924;2023-05-09T13:46:00;9.50;;;7.20;;
24547;SDS011;12713;51.624;4.924;2023-05-09T13:48:26;8.55;;;6.57;;
24547;SDS011;12713;51.624;4.924;2023-05-09T13:50:52;8.25;;;7.10;;
24547;SDS011;12713;51.624;4.924;2023-05-09T13:53:18;9.35;;;6.97;;
24547;SDS011;12713;51.624;4.924;2023-05-09T13:55:44;8.23;;;6.88;;
24547;SDS011;12713;51.624;4.924;2023-05-09T13:58:11;8.25;;;7.00;;
24547;SDS011;12713;51.624;4.924;2023-05-09T14:00:37;9.00;;;7.30;;
24547;SDS011;12713;51.624;4.924;2023-05-09T14:03:03;10.52;;;8.35;;
24547;SDS011;12713;51.624;4.924;2023-05-09T14:05:32;9.15;;;6.90;;
24547;SDS011;12713;51.624;4.924;2023-05-09T14:07:58;9.38;;;6.72;;
24547;SDS011;12713;51.624;4.924;2023-05-09T14:10:27;10.63;;;6.70;;
24547;SDS011;12713;51.624;4.924;2023-05-09T14:12:53;8.55;;;6.55;;
24547;SDS011;12713;51.624;4.924;2023-05-09T14:15:20;9.45;;;5.47;;
24547;SDS011;12713;51.624;4.924;2023-05-09T14:17:46;8.02;;;6.45;;
24547;SDS011;12713;51.624;4.924;2023-05-09T14:20:12;11.90;;;4.88;;
24547;SDS011;12713;51.624;4.924;2023-05-09T14:22:39;7.25;;;4.00;;
24547;SDS011;12713;51.624;4.924;2023-05-09T14:25:06;6.00;;;4.40;;
24547;SDS011;12713;51.624;4.924;2023-05-09T14:27:32;5.80;;;4.40;;
24547;SDS011;12713;51.624;4.924;2023-05-09T14:30:01;6.93;;;5.15;;
24547;SDS011;12713;51.624;4.924;2023-05-09T14:32:27;9.95;;;5.50;;
24547;SDS011;12713;51.624;4.924;2023-05-09T14:34:53;7.22;;;5.68;;
24547;SDS011;12713;51.624;4.924;2023-05-09T14:37:19;6.82;;;5.38;;
24547;SDS011;12713;51.624;4.924;2023-05-09T14:39:45;7.13;;;5.97;;
24547;SDS011;12713;51.624;4.924;2023-05-09T14:42:13;11.95;;;5.70;;